Dalhart, TX

9:57 PM CDT on October 25, 2014 (GMT -0500)
Dalhart Municipal | Change Station
CLOSE
Current Station
Airport
Location: Dalhart,
Elevation: 3990 ft
Nearby Weather Stations

Elev 3990 ft 36.03 °N, 102.55 °W | Updated 1 hour ago

Clear
Clear
63 °F
Feels Like 63 °F
N
10
Wind Variable Wind from SSE

Today
High -- | Low -- °F
--% Chance of Precip.
Yesterday
High -- | Low -- °F
Precip. -- in
8:06 AM 7:01 PM
Waxing Crescent, 5% visible
Pressure 29.97 in
Visibility 10.0 miles
Clouds Clear
Dew Point 42 °F
Humidity 46%
Rainfall 0.00 in
Snow Depth Not available.
UV 0 out of 12
Pollen 6.50 out of 12
Air Quality Not available.
Flu Activity Local Activity
METAR KDHT 260153Z AUTO 16009KT 10SM CLR 17/06 A3005 RMK AO2 SLP147 T01720056

More Conditions Fewer Conditions

Pressure 29.97 in
Visibility 10.0 miles
Clouds Clear
Dew Point 42 °F
Humidity 46%
Rainfall 0.00 in
Snow Depth Not available.
UV 0 out of 12
Pollen 6.50 out of 12
Air Quality Not available.
Flu Activity Local Activity
METAR KDHT 260153Z AUTO 16009KT 10SM CLR 17/06 A3005 RMK AO2 SLP147 T01720056

More Conditions Fewer Conditions

10-Day Weather Forecast

Almanac

Astronomy

Oct. 25, 2014 Rise Set
Actual Time 8:06 AM CDT 7:01 PM CDT
Civil Twilight 7:39 AM CDT 7:27 PM CDT
Nautical Twilight 7:09 AM CDT 7:57 PM CDT
Astronomical Twilight 6:39 AM CDT 8:27 PM CDT
Moon 9:44 AM CDT (10/25) 8:29 PM CDT (10/25)
Length of Visible Light 11h 48m
Length of Day
10h 55m
Tomorrow will be 2m 6s shorter.
Waxing Crescent, 5% of the Moon is Illuminated
Today
Waxing Crescent
Oct 30
First Quarter
Nov 6
Full
Nov 14
Last Quarter
Nov 22
New

Today's Extremes

State Highs State Lows

Community

WunderPhotos

Upload Photos

1,765,086 photos uploaded!

Nearby

Snow Depth

Station Depth Elevation
No new snow has been reported.

Earthquake Activity

City Distance Mag. Time & Date
No recent earthquake activity has been reported nearby.
Minimum magnitude displayed is 2.5.

Coastal Water Temperatures

Place Temperature
No Stations Reporting

Nearby Weather Stations